sensor_id;sensor_type;location;lat;lon;timestamp;temperature;humidity
60287;DHT22;46141;52.382;5.270;2023-04-06T00:01:39;20.80;54.70
60287;DHT22;46141;52.382;5.270;2023-04-06T00:04:06;20.80;54.70
60287;DHT22;46141;52.382;5.270;2023-04-06T00:06:32;20.80;54.70
60287;DHT22;46141;52.382;5.270;2023-04-06T00:08:59;20.80;54.70
60287;DHT22;46141;52.382;5.270;2023-04-06T00:11:25;20.80;54.60
60287;DHT22;46141;52.382;5.270;2023-04-06T00:13:52;20.80;54.60
60287;DHT22;46141;52.382;5.270;2023-04-06T00:16:17;20.80;54.60
60287;DHT22;46141;52.382;5.270;2023-04-06T00:18:43;20.80;54.60
60287;DHT22;46141;52.382;5.270;2023-04-06T00:21:13;20.80;54.50
60287;DHT22;46141;52.382;5.270;2023-04-06T00:23:40;20.80;54.60
60287;DHT22;46141;52.382;5.270;2023-04-06T00:26:06;20.80;54.50
60287;DHT22;46141;52.382;5.270;2023-04-06T00:28:32;20.80;54.50
60287;DHT22;46141;52.382;5.270;2023-04-06T00:30:57;20.80;54.40
60287;DHT22;46141;52.382;5.270;2023-04-06T00:33:23;20.80;54.40
60287;DHT22;46141;52.382;5.270;2023-04-06T00:35:49;20.80;54.30
60287;DHT22;46141;52.382;5.270;2023-04-06T00:38:15;20.80;54.30
60287;DHT22;46141;52.382;5.270;2023-04-06T00:40:42;20.80;54.30
60287;DHT22;46141;52.382;5.270;2023-04-06T00:43:10;20.80;54.30
60287;DHT22;46141;52.382;5.270;2023-04-06T00:45:38;20.80;54.30
60287;DHT22;46141;52.382;5.270;2023-04-06T00:48:04;20.80;54.20
60287;DHT22;46141;52.382;5.270;2023-04-06T00:50:30;20.80;54.30
60287;DHT22;46141;52.382;5.270;2023-04-06T00:52:56;20.80;54.80
60287;DHT22;46141;52.382;5.270;2023-04-06T00:55:22;20.80;54.20
60287;DHT22;46141;52.382;5.270;2023-04-06T00:57:48;20.80;54.20
60287;DHT22;46141;52.382;5.270;2023-04-06T01:00:16;20.80;54.10
60287;DHT22;46141;52.382;5.270;2023-04-06T01:02:42;20.80;54.10
60287;DHT22;46141;52.382;5.270;2023-04-06T01:05:08;20.80;54.20
60287;DHT22;46141;52.382;5.270;2023-04-06T01:07:33;20.80;54.70
60287;DHT22;46141;52.382;5.270;2023-04-06T01:09:59;20.80;54.20
60287;DHT22;46141;52.382;5.270;2023-04-06T01:12:25;20.80;54.10
60287;DHT22;46141;52.382;5.270;2023-04-06T01:14:51;20.70;54.00
60287;DHT22;46141;52.382;5.270;2023-04-06T01:17:16;20.70;54.00
60287;DHT22;46141;52.382;5.270;2023-04-06T01:19:42;20.70;53.90
60287;DHT22;46141;52.382;5.270;2023-04-06T01:22:15;20.70;53.90
60287;DHT22;46141;52.382;5.270;2023-04-06T01:24:40;20.70;53.90
60287;DHT22;46141;52.382;5.270;2023-04-06T01:27:06;20.70;54.00
60287;DHT22;46141;52.382;5.270;2023-04-06T01:29:32;20.70;54.00
60287;DHT22;46141;52.382;5.270;2023-04-06T01:31:57;20.70;54.00
60287;DHT22;46141;52.382;5.270;2023-04-06T01:34:23;20.70;54.00
60287;DHT22;46141;52.382;5.270;2023-04-06T01:36:49;20.70;53.90
60287;DHT22;46141;52.382;5.270;2023-04-06T01:39:14;20.70;53.90
60287;DHT22;46141;52.382;5.270;2023-04-06T01:41:40;20.70;53.80
60287;DHT22;46141;52.382;5.270;2023-04-06T01:44:06;20.70;53.80
60287;DHT22;46141;52.382;5.270;2023-04-06T01:46:31;20.70;53.80
60287;DHT22;46141;52.382;5.270;2023-04-06T01:48:57;20.70;53.80
60287;DHT22;46141;52.382;5.270;2023-04-06T01:51:23;20.70;53.70
60287;DHT22;46141;52.382;5.270;2023-04-06T01:53:50;20.70;53.80
60287;DHT22;46141;52.382;5.270;2023-04-06T01:56:15;20.70;53.70
60287;DHT22;46141;52.382;5.270;2023-04-06T01:58:41;20.70;53.60
60287;DHT22;46141;52.382;5.270;2023-04-06T02:01:07;20.70;53.70
60287;DHT22;46141;52.382;5.270;2023-04-06T02:03:33;20.70;53.70
60287;DHT22;46141;52.382;5.270;2023-04-06T02:06:01;20.70;53.60
60287;DHT22;46141;52.382;5.270;2023-04-06T02:08:26;20.70;53.60
60287;DHT22;46141;52.382;5.270;2023-04-06T02:10:52;20.70;53.60
60287;DHT22;46141;52.382;5.270;2023-04-06T02:13:18;20.70;53.60
60287;DHT22;46141;52.382;5.270;2023-04-06T02:15:44;20.70;53.50
60287;DHT22;46141;52.382;5.270;2023-04-06T02:18:09;20.70;53.50
60287;DHT22;46141;52.382;5.270;2023-04-06T02:20:35;20.70;53.60
60287;DHT22;46141;52.382;5.270;2023-04-06T02:23:01;20.70;53.50
60287;DHT22;46141;52.382;5.270;2023-04-06T02:25:26;20.70;53.50
60287;DHT22;46141;52.382;5.270;2023-04-06T02:27:52;20.70;53.50
60287;DHT22;46141;52.382;5.270;2023-04-06T02:30:18;20.70;53.50
60287;DHT22;46141;52.382;5.270;2023-04-06T02:32:43;20.70;53.40
60287;DHT22;46141;52.382;5.270;2023-04-06T02:35:09;20.70;53.40
60287;DHT22;46141;52.382;5.270;2023-04-06T02:37:35;20.70;53.40
60287;DHT22;46141;52.382;5.270;2023-04-06T02:40:01;20.70;53.40
60287;DHT22;46141;52.382;5.270;2023-04-06T02:42:26;20.70;53.40
60287;DHT22;46141;52.382;5.270;2023-04-06T02:44:52;20.70;53.30
60287;DHT22;46141;52.382;5.270;2023-04-06T02:47:17;20.70;53.40
60287;DHT22;46141;52.382;5.270;2023-04-06T02:49:43;20.80;53.40
60287;DHT22;46141;52.382;5.270;2023-04-06T02:52:09;20.70;53.20
60287;DHT22;46141;52.382;5.270;2023-04-06T02:54:34;20.70;53.30
60287;DHT22;46141;52.382;5.270;2023-04-06T02:57:00;20.70;53.30
60287;DHT22;46141;52.382;5.270;2023-04-06T02:59:26;20.70;53.20
60287;DHT22;46141;52.382;5.270;2023-04-06T03:01:51;20.70;53.30
60287;DHT22;46141;52.382;5.270;2023-04-06T03:04:17;20.70;53.20
60287;DHT22;46141;52.382;5.270;2023-04-06T03:06:43;20.70;53.20
60287;DHT22;46141;52.382;5.270;2023-04-06T03:09:08;20.70;53.20
60287;DHT22;46141;52.382;5.270;2023-04-06T03:11:34;20.80;53.20
60287;DHT22;46141;52.382;5.270;2023-04-06T03:14:00;20.70;53.10
60287;DHT22;46141;52.382;5.270;2023-04-06T03:16:25;20.70;53.20
60287;DHT22;46141;52.382;5.270;2023-04-06T03:18:51;20.70;53.20
60287;DHT22;46141;52.382;5.270;2023-04-06T03:21:17;20.70;53.20
60287;DHT22;46141;52.382;5.270;2023-04-06T03:23:43;20.70;53.10
60287;DHT22;46141;52.382;5.270;2023-04-06T03:26:08;20.70;53.10
60287;DHT22;46141;52.382;5.270;2023-04-06T03:28:35;20.70;53.10
60287;DHT22;46141;52.382;5.270;2023-04-06T03:31:01;20.70;53.10
60287;DHT22;46141;52.382;5.270;2023-04-06T03:33:26;20.70;53.10
60287;DHT22;46141;52.382;5.270;2023-04-06T03:35:55;20.70;53.00
60287;DHT22;46141;52.382;5.270;2023-04-06T03:38:21;20.80;53.10
60287;DHT22;46141;52.382;5.270;2023-04-06T03:40:47;20.80;53.00
60287;DHT22;46141;52.382;5.270;2023-04-06T03:43:13;20.80;53.00
60287;DHT22;46141;52.382;5.270;2023-04-06T03:45:38;20.70;53.00
60287;DHT22;46141;52.382;5.270;2023-04-06T03:48:05;20.80;53.10
60287;DHT22;46141;52.382;5.270;2023-04-06T03:50:31;20.70;53.00
60287;DHT22;46141;52.382;5.270;2023-04-06T03:52:57;20.80;53.00
60287;DHT22;46141;52.382;5.270;2023-04-06T03:55:23;20.70;53.00
60287;DHT22;46141;52.382;5.270;2023-04-06T03:57:48;20.80;53.00
60287;DHT22;46141;52.382;5.270;2023-04-06T04:00:14;20.70;52.90
60287;DHT22;46141;52.382;5.270;2023-04-06T04:02:40;20.80;53.00
60287;DHT22;46141;52.382;5.270;2023-04-06T04:05:06;20.70;52.90
60287;DHT22;46141;52.382;5.270;2023-04-06T04:07:32;20.70;52.90
60287;DHT22;46141;52.382;5.270;2023-04-06T04:09:57;20.70;52.90
60287;DHT22;46141;52.382;5.270;2023-04-06T04:12:23;20.80;52.90
60287;DHT22;46141;52.382;5.270;2023-04-06T04:14:49;20.80;52.90
60287;DHT22;46141;52.382;5.270;2023-04-06T04:17:15;20.70;52.90
60287;DHT22;46141;52.382;5.270;2023-04-06T04:19:41;20.70;52.80
60287;DHT22;46141;52.382;5.270;2023-04-06T04:22:07;20.70;52.90
60287;DHT22;46141;52.382;5.270;2023-04-06T04:24:32;20.80;52.90
60287;DHT22;46141;52.382;5.270;2023-04-06T04:26:59;20.70;52.80
60287;DHT22;46141;52.382;5.270;2023-04-06T04:29:26;20.70;52.80
60287;DHT22;46141;52.382;5.270;2023-04-06T04:31:52;20.70;52.90
60287;DHT22;46141;52.382;5.270;2023-04-06T04:34:18;20.70;52.70
60287;DHT22;46141;52.382;5.270;2023-04-06T04:36:46;20.70;52.70
60287;DHT22;46141;52.382;5.270;2023-04-06T04:39:12;20.80;52.70
60287;DHT22;46141;52.382;5.270;2023-04-06T04:41:37;20.70;52.80
60287;DHT22;46141;52.382;5.270;2023-04-06T04:44:03;20.80;52.80
60287;DHT22;46141;52.382;5.270;2023-04-06T04:46:29;20.80;52.80
60287;DHT22;46141;52.382;5.270;2023-04-06T04:48:55;20.70;52.70
60287;DHT22;46141;52.382;5.270;2023-04-06T04:51:20;20.70;52.70
60287;DHT22;46141;52.382;5.270;2023-04-06T04:53:46;20.80;52.70
60287;DHT22;46141;52.382;5.270;2023-04-06T04:56:12;20.80;52.80
60287;DHT22;46141;52.382;5.270;2023-04-06T04:58:37;20.80;52.70
60287;DHT22;46141;52.382;5.270;2023-04-06T05:01:03;20.80;52.70
60287;DHT22;46141;52.382;5.270;2023-04-06T05:03:29;20.70;52.70
60287;DHT22;46141;52.382;5.270;2023-04-06T05:05:55;20.80;52.70
60287;DHT22;46141;52.382;5.270;2023-04-06T05:08:21;20.80;52.70
60287;DHT22;46141;52.382;5.270;2023-04-06T05:10:47;20.80;52.70
60287;DHT22;46141;52.382;5.270;2023-04-06T05:13:14;20.80;52.70
60287;DHT22;46141;52.382;5.270;2023-04-06T05:15:40;20.70;52.60
60287;DHT22;46141;52.382;5.270;2023-04-06T05:18:09;20.80;52.60
60287;DHT22;46141;52.382;5.270;2023-04-06T05:20:35;20.80;53.10
60287;DHT22;46141;52.382;5.270;2023-04-06T05:23:01;20.80;52.70
60287;DHT22;46141;52.382;5.270;2023-04-06T05:25:28;20.80;52.70
60287;DHT22;46141;52.382;5.270;2023-04-06T05:27:54;20.80;52.90
60287;DHT22;46141;52.382;5.270;2023-04-06T05:30:20;20.80;52.80
60287;DHT22;46141;52.382;5.270;2023-04-06T05:32:47;20.80;52.60
60287;DHT22;46141;52.382;5.270;2023-04-06T05:35:13;20.80;52.70
60287;DHT22;46141;52.382;5.270;2023-04-06T05:37:39;20.70;52.90
60287;DHT22;46141;52.382;5.270;2023-04-06T05:40:06;20.70;52.20
60287;DHT22;46141;52.382;5.270;2023-04-06T05:42:39;20.70;52.00
60287;DHT22;46141;52.382;5.270;2023-04-06T05:45:06;20.70;52.20
60287;DHT22;46141;52.382;5.270;2023-04-06T05:47:31;20.80;52.70
60287;DHT22;46141;52.382;5.270;2023-04-06T05:49:57;20.80;52.80
60287;DHT22;46141;52.382;5.270;2023-04-06T05:52:23;20.80;52.90
60287;DHT22;46141;52.382;5.270;2023-04-06T05:54:48;20.80;52.90
60287;DHT22;46141;52.382;5.270;2023-04-06T05:57:14;20.80;52.80
60287;DHT22;46141;52.382;5.270;2023-04-06T05:59:42;20.80;52.60
60287;DHT22;46141;52.382;5.270;2023-04-06T06:02:08;20.80;52.60
60287;DHT22;46141;52.382;5.270;2023-04-06T06:04:33;20.80;52.60
60287;DHT22;46141;52.382;5.270;2023-04-06T06:07:00;20.80;52.60
60287;DHT22;46141;52.382;5.270;2023-04-06T06:09:25;20.80;52.50
60287;DHT22;46141;52.382;5.270;2023-04-06T06:11:51;20.80;51.90
60287;DHT22;46141;52.382;5.270;2023-04-06T06:14:17;20.80;52.10
60287;DHT22;46141;52.382;5.270;2023-04-06T06:16:42;20.80;52.10
60287;DHT22;46141;52.382;5.270;2023-04-06T06:19:08;20.80;52.20
60287;DHT22;46141;52.382;5.270;2023-04-06T06:21:34;20.80;52.30
60287;DHT22;46141;52.382;5.270;2023-04-06T06:24:00;20.80;52.40
60287;DHT22;46141;52.382;5.270;2023-04-06T06:26:26;20.90;52.60
60287;DHT22;46141;52.382;5.270;2023-04-06T06:28:51;20.80;52.70
60287;DHT22;46141;52.382;5.270;2023-04-06T06:31:17;20.80;53.00
60287;DHT22;46141;52.382;5.270;2023-04-06T06:33:46;20.90;53.10
60287;DHT22;46141;52.382;5.270;2023-04-06T06:36:11;20.90;53.30
60287;DHT22;46141;52.382;5.270;2023-04-06T06:38:37;20.90;53.30
60287;DHT22;46141;52.382;5.270;2023-04-06T06:41:04;20.90;52.90
60287;DHT22;46141;52.382;5.270;2023-04-06T06:43:29;20.90;52.60
60287;DHT22;46141;52.382;5.270;2023-04-06T06:45:55;20.90;52.80
60287;DHT22;46141;52.382;5.270;2023-04-06T06:48:21;20.90;53.00
60287;DHT22;46141;52.382;5.270;2023-04-06T06:50:47;20.90;53.00
60287;DHT22;46141;52.382;5.270;2023-04-06T06:53:13;20.90;53.00
60287;DHT22;46141;52.382;5.270;2023-04-06T06:55:40;20.90;53.10
60287;DHT22;46141;52.382;5.270;2023-04-06T06:58:06;20.90;53.10
60287;DHT22;46141;52.382;5.270;2023-04-06T07:00:32;20.90;52.90
60287;DHT22;46141;52.382;5.270;2023-04-06T07:02:58;20.90;51.60
60287;DHT22;46141;52.382;5.270;2023-04-06T07:05:23;20.90;52.50
60287;DHT22;46141;52.382;5.270;2023-04-06T07:07:49;20.90;52.80
60287;DHT22;46141;52.382;5.270;2023-04-06T07:10:15;20.90;53.00
60287;DHT22;46141;52.382;5.270;2023-04-06T07:12:40;20.90;53.10
60287;DHT22;46141;52.382;5.270;2023-04-06T07:15:06;20.90;53.20
60287;DHT22;46141;52.382;5.270;2023-04-06T07:17:32;20.90;53.20
60287;DHT22;46141;52.382;5.270;2023-04-06T07:19:58;20.90;53.20
60287;DHT22;46141;52.382;5.270;2023-04-06T07:22:23;21.00;53.20
60287;DHT22;46141;52.382;5.270;2023-04-06T07:24:49;20.90;53.20
60287;DHT22;46141;52.382;5.270;2023-04-06T07:27:15;20.90;53.20
60287;DHT22;46141;52.382;5.270;2023-04-06T07:29:42;20.90;53.30
60287;DHT22;46141;52.382;5.270;2023-04-06T07:32:08;20.90;53.30
60287;DHT22;46141;52.382;5.270;2023-04-06T07:34:33;20.90;53.30
60287;DHT22;46141;52.382;5.270;2023-04-06T07:36:59;20.90;53.20
60287;DHT22;46141;52.382;5.270;2023-04-06T07:39:26;21.00;53.20
60287;DHT22;46141;52.382;5.270;2023-04-06T07:41:52;21.00;53.30
60287;DHT22;46141;52.382;5.270;2023-04-06T07:44:18;21.00;53.20
60287;DHT22;46141;52.382;5.270;2023-04-06T07:46:43;21.00;53.20
60287;DHT22;46141;52.382;5.270;2023-04-06T07:49:09;21.00;53.30
60287;DHT22;46141;52.382;5.270;2023-04-06T07:51:37;21.00;53.30
60287;DHT22;46141;52.382;5.270;2023-04-06T07:54:03;20.90;53.30
60287;DHT22;46141;52.382;5.270;2023-04-06T07:56:29;21.00;53.30
60287;DHT22;46141;52.382;5.270;2023-04-06T07:58:54;21.00;53.30
60287;DHT22;46141;52.382;5.270;2023-04-06T08:01:22;21.00;53.30
60287;DHT22;46141;52.382;5.270;2023-04-06T08:03:48;20.90;53.30
60287;DHT22;46141;52.382;5.270;2023-04-06T08:06:15;21.00;53.30
60287;DHT22;46141;52.382;5.270;2023-04-06T08:08:41;20.90;53.30
60287;DHT22;46141;52.382;5.270;2023-04-06T08:11:07;20.90;53.30
60287;DHT22;46141;52.382;5.270;2023-04-06T08:13:34;20.90;53.30
60287;DHT22;46141;52.382;5.270;2023-04-06T08:15:59;20.90;53.30
60287;DHT22;46141;52.382;5.270;2023-04-06T08:18:25;21.00;53.30
60287;DHT22;46141;52.382;5.270;2023-04-06T08:20:51;21.00;53.30
60287;DHT22;46141;52.382;5.270;2023-04-06T08:23:17;21.00;53.30
60287;DHT22;46141;52.382;5.270;2023-04-06T08:25:43;21.00;53.30
60287;DHT22;46141;52.382;5.270;2023-04-06T08:28:09;21.00;53.40
60287;DHT22;46141;52.382;5.270;2023-04-06T08:30:35;21.00;53.30
60287;DHT22;46141;52.382;5.270;2023-04-06T08:33:01;21.00;53.40
60287;DHT22;46141;52.382;5.270;2023-04-06T08:35:27;21.00;53.30
60287;DHT22;46141;52.382;5.270;2023-04-06T08:37:53;21.00;53.40
60287;DHT22;46141;52.382;5.270;2023-04-06T08:40:19;21.00;53.40
60287;DHT22;46141;52.382;5.270;2023-04-06T08:42:50;21.00;53.30
60287;DHT22;46141;52.382;5.270;2023-04-06T08:45:17;21.10;53.40
60287;DHT22;46141;52.382;5.270;2023-04-06T08:47:49;21.10;53.50
60287;DHT22;46141;52.382;5.270;2023-04-06T08:50:17;21.00;53.50
60287;DHT22;46141;52.382;5.270;2023-04-06T08:52:48;21.10;53.50
60287;DHT22;46141;52.382;5.270;2023-04-06T08:55:14;21.00;53.50
60287;DHT22;46141;52.382;5.270;2023-04-06T08:57:42;21.00;53.50
60287;DHT22;46141;52.382;5.270;2023-04-06T09:00:10;21.10;53.60
60287;DHT22;46141;52.382;5.270;2023-04-06T09:02:40;21.10;53.70
60287;DHT22;46141;52.382;5.270;2023-04-06T09:05:08;21.10;53.80
60287;DHT22;46141;52.382;5.270;2023-04-06T09:07:36;21.10;53.70
60287;DHT22;46141;52.382;5.270;2023-04-06T09:10:02;21.10;53.90
60287;DHT22;46141;52.382;5.270;2023-04-06T09:12:30;21.10;53.70
60287;DHT22;46141;52.382;5.270;2023-04-06T09:14:58;21.10;54.30
60287;DHT22;46141;52.382;5.270;2023-04-06T09:17:25;21.10;53.80
60287;DHT22;46141;52.382;5.270;2023-04-06T09:19:52;21.10;53.80
60287;DHT22;46141;52.382;5.270;2023-04-06T09:22:18;21.10;53.90
60287;DHT22;46141;52.382;5.270;2023-04-06T09:24:48;21.10;54.00
60287;DHT22;46141;52.382;5.270;2023-04-06T09:27:14;21.20;54.30
60287;DHT22;46141;52.382;5.270;2023-04-06T09:29:41;21.20;54.10
60287;DHT22;46141;52.382;5.270;2023-04-06T09:32:09;21.20;54.70
60287;DHT22;46141;52.382;5.270;2023-04-06T09:34:41;21.20;54.70
60287;DHT22;46141;52.382;5.270;2023-04-06T09:37:18;21.20;54.90
60287;DHT22;46141;52.382;5.270;2023-04-06T09:39:45;21.20;54.80
60287;DHT22;46141;52.382;5.270;2023-04-06T09:42:24;21.30;54.60
60287;DHT22;46141;52.382;5.270;2023-04-06T09:44:51;21.20;54.60
60287;DHT22;46141;52.382;5.270;2023-04-06T09:47:18;21.30;54.70
60287;DHT22;46141;52.382;5.270;2023-04-06T09:49:47;21.20;54.50
60287;DHT22;46141;52.382;5.270;2023-04-06T09:52:16;21.30;54.40
60287;DHT22;46141;52.382;5.270;2023-04-06T09:54:43;21.20;54.50
60287;DHT22;46141;52.382;5.270;2023-04-06T10:00:13;21.30;54.60
60287;DHT22;46141;52.382;5.270;2023-04-06T10:08:06;21.30;55.10
60287;DHT22;46141;52.382;5.270;2023-04-06T10:10:35;21.30;54.60
60287;DHT22;46141;52.382;5.270;2023-04-06T10:13:02;21.20;54.60
60287;DHT22;46141;52.382;5.270;2023-04-06T10:15:29;21.30;55.00
60287;DHT22;46141;52.382;5.270;2023-04-06T10:17:59;21.30;55.30
60287;DHT22;46141;52.382;5.270;2023-04-06T10:23:12;21.30;54.90
60287;DHT22;46141;52.382;5.270;2023-04-06T10:25:52;21.30;55.10
60287;DHT22;46141;52.382;5.270;2023-04-06T10:28:19;21.30;55.40
60287;DHT22;46141;52.382;5.270;2023-04-06T10:30:45;21.30;54.90
60287;DHT22;46141;52.382;5.270;2023-04-06T10:33:19;21.30;55.10
60287;DHT22;46141;52.382;5.270;2023-04-06T10:35:46;21.30;55.20
60287;DHT22;46141;52.382;5.270;2023-04-06T10:38:12;21.30;54.80
60287;DHT22;46141;52.382;5.270;2023-04-06T10:40:41;21.40;55.10
60287;DHT22;46141;52.382;5.270;2023-04-06T10:43:18;21.30;55.10
60287;DHT22;46141;52.382;5.270;2023-04-06T10:45:45;21.30;55.30
60287;DHT22;46141;52.382;5.270;2023-04-06T10:48:19;21.30;55.10
60287;DHT22;46141;52.382;5.270;2023-04-06T10:50:48;21.30;55.30
60287;DHT22;46141;52.382;5.270;2023-04-06T10:53:27;21.20;55.10
60287;DHT22;46141;52.382;5.270;2023-04-06T10:55:56;21.30;55.40
60287;DHT22;46141;52.382;5.270;2023-04-06T10:58:27;21.30;55.40
60287;DHT22;46141;52.382;5.270;2023-04-06T11:00:54;21.30;55.20
60287;DHT22;46141;52.382;5.270;2023-04-06T11:03:21;21.30;55.70
60287;DHT22;46141;52.382;5.270;2023-04-06T11:05:50;21.40;55.40
60287;DHT22;46141;52.382;5.270;2023-04-06T11:08:31;21.30;56.00
60287;DHT22;46141;52.382;5.270;2023-04-06T11:11:12;21.30;55.50
60287;DHT22;46141;52.382;5.270;2023-04-06T11:13:48;21.30;55.70
60287;DHT22;46141;52.382;5.270;2023-04-06T11:16:20;21.40;55.40
60287;DHT22;46141;52.382;5.270;2023-04-06T11:21:39;21.30;55.80
60287;DHT22;46141;52.382;5.270;2023-04-06T11:24:21;21.40;55.70
60287;DHT22;46141;52.382;5.270;2023-04-06T11:26:55;21.30;55.40
60287;DHT22;46141;52.382;5.270;2023-04-06T11:29:27;21.30;55.60
60287;DHT22;46141;52.382;5.270;2023-04-06T11:32:04;21.30;55.20
60287;DHT22;46141;52.382;5.270;2023-04-06T11:34:35;21.30;55.60
60287;DHT22;46141;52.382;5.270;2023-04-06T11:37:06;21.30;55.20
60287;DHT22;46141;52.382;5.270;2023-04-06T11:39:38;21.30;55.30
60287;DHT22;46141;52.382;5.270;2023-04-06T11:42:04;21.30;55.50
60287;DHT22;46141;52.382;5.270;2023-04-06T11:44:42;21.30;55.60
60287;DHT22;46141;52.382;5.270;2023-04-06T11:47:11;21.30;55.60
60287;DHT22;46141;52.382;5.270;2023-04-06T11:49:39;21.30;55.60
60287;DHT22;46141;52.382;5.270;2023-04-06T11:52:26;21.30;55.50
60287;DHT22;46141;52.382;5.270;2023-04-06T11:54:54;21.30;55.40
60287;DHT22;46141;52.382;5.270;2023-04-06T11:57:21;21.30;55.60
60287;DHT22;46141;52.382;5.270;2023-04-06T11:59:49;21.30;55.70
60287;DHT22;46141;52.382;5.270;2023-04-06T12:02:15;21.20;55.70
60287;DHT22;46141;52.382;5.270;2023-04-06T12:04:41;21.30;55.40
60287;DHT22;46141;52.382;5.270;2023-04-06T12:07:06;21.30;55.50
60287;DHT22;46141;52.382;5.270;2023-04-06T12:09:32;21.30;55.60
60287;DHT22;46141;52.382;5.270;2023-04-06T12:11:59;21.30;55.70
60287;DHT22;46141;52.382;5.270;2023-04-06T12:14:25;21.30;55.70
60287;DHT22;46141;52.382;5.270;2023-04-06T12:16:51;21.30;55.80
60287;DHT22;46141;52.382;5.270;2023-04-06T12:19:17;21.30;55.50
60287;DHT22;46141;52.382;5.270;2023-04-06T12:21:43;21.30;55.80
60287;DHT22;46141;52.382;5.270;2023-04-06T12:24:09;21.30;55.60
60287;DHT22;46141;52.382;5.270;2023-04-06T12:26:34;21.30;55.90
60287;DHT22;46141;52.382;5.270;2023-04-06T12:29:01;21.30;55.90
60287;DHT22;46141;52.382;5.270;2023-04-06T12:31:33;21.30;55.90
60287;DHT22;46141;52.382;5.270;2023-04-06T12:34:00;21.30;55.70
60287;DHT22;46141;52.382;5.270;2023-04-06T12:36:27;21.30;55.80
60287;DHT22;46141;52.382;5.270;2023-04-06T12:38:54;21.30;55.60
60287;DHT22;46141;52.382;5.270;2023-04-06T12:41:19;21.30;55.60
60287;DHT22;46141;52.382;5.270;2023-04-06T12:43:45;21.30;55.70
60287;DHT22;46141;52.382;5.270;2023-04-06T12:46:11;21.30;55.50
60287;DHT22;46141;52.382;5.270;2023-04-06T12:48:37;21.20;55.40
60287;DHT22;46141;52.382;5.270;2023-04-06T12:51:05;21.20;55.60
60287;DHT22;46141;52.382;5.270;2023-04-06T12:53:32;21.20;55.70
60287;DHT22;46141;52.382;5.270;2023-04-06T12:55:59;21.20;55.70
60287;DHT22;46141;52.382;5.270;2023-04-06T12:58:25;21.20;55.40
60287;DHT22;46141;52.382;5.270;2023-04-06T13:00:57;21.20;55.50
60287;DHT22;46141;52.382;5.270;2023-04-06T13:03:23;21.20;55.40
60287;DHT22;46141;52.382;5.270;2023-04-06T13:05:52;21.20;56.10
60287;DHT22;46141;52.382;5.270;2023-04-06T13:08:19;21.20;55.50
60287;DHT22;46141;52.382;5.270;2023-04-06T13:10:50;21.20;55.50
60287;DHT22;46141;52.382;5.270;2023-04-06T13:13:29;21.20;55.50
60287;DHT22;46141;52.382;5.270;2023-04-06T13:16:01;21.20;55.50
60287;DHT22;46141;52.382;5.270;2023-04-06T13:18:28;21.20;55.60
60287;DHT22;46141;52.382;5.270;2023-04-06T13:20:54;21.20;55.50
60287;DHT22;46141;52.382;5.270;2023-04-06T13:23:22;21.20;55.50
60287;DHT22;46141;52.382;5.270;2023-04-06T13:25:47;21.20;55.50
60287;DHT22;46141;52.382;5.270;2023-04-06T13:28:13;21.20;55.50
60287;DHT22;46141;52.382;5.270;2023-04-06T13:30:39;21.20;55.50
60287;DHT22;46141;52.382;5.270;2023-04-06T13:33:05;21.20;55.40
60287;DHT22;46141;52.382;5.270;2023-04-06T13:35:32;21.20;55.50
60287;DHT22;46141;52.382;5.270;2023-04-06T13:37:58;21.20;55.50
60287;DHT22;46141;52.382;5.270;2023-04-06T13:40:25;21.20;55.60
60287;DHT22;46141;52.382;5.270;2023-04-06T13:42:50;21.20;55.50
60287;DHT22;46141;52.382;5.270;2023-04-06T13:45:16;21.20;55.50
60287;DHT22;46141;52.382;5.270;2023-04-06T13:47:42;21.20;55.60
60287;DHT22;46141;52.382;5.270;2023-04-06T13:50:08;21.20;55.50
60287;DHT22;46141;52.382;5.270;2023-04-06T13:52:35;21.20;55.50
60287;DHT22;46141;52.382;5.270;2023-04-06T13:55:01;21.20;55.50
60287;DHT22;46141;52.382;5.270;2023-04-06T13:57:27;21.20;55.60
60287;DHT22;46141;52.382;5.270;2023-04-06T13:59:55;21.20;55.60
60287;DHT22;46141;52.382;5.270;2023-04-06T14:02:20;21.20;55.60
60287;DHT22;46141;52.382;5.270;2023-04-06T14:04:52;21.20;55.60
60287;DHT22;46141;52.382;5.270;2023-04-06T14:07:17;21.20;55.60
60287;DHT22;46141;52.382;5.270;2023-04-06T14:09:43;21.20;55.60
60287;DHT22;46141;52.382;5.270;2023-04-06T14:12:08;21.20;55.60
60287;DHT22;46141;52.382;5.270;2023-04-06T14:14:34;21.20;55.60
60287;DHT22;46141;52.382;5.270;2023-04-06T14:17:00;21.20;55.70
60287;DHT22;46141;52.382;5.270;2023-04-06T14:19:25;21.20;55.70
60287;DHT22;46141;52.382;5.270;2023-04-06T14:21:51;21.20;55.80
60287;DHT22;46141;52.382;5.270;2023-04-06T14:24:18;21.20;55.70
60287;DHT22;46141;52.382;5.270;2023-04-06T14:26:44;21.10;55.70
60287;DHT22;46141;52.382;5.270;2023-04-06T14:29:10;21.20;55.70
60287;DHT22;46141;52.382;5.270;2023-04-06T14:31:36;21.10;55.60
60287;DHT22;46141;52.382;5.270;2023-04-06T14:34:03;21.20;55.60
60287;DHT22;46141;52.382;5.270;2023-04-06T14:36:31;21.20;55.70
60287;DHT22;46141;52.382;5.270;2023-04-06T14:39:05;21.20;55.70
60287;DHT22;46141;52.382;5.270;2023-04-06T14:41:32;21.20;55.80
60287;DHT22;46141;52.382;5.270;2023-04-06T14:43:58;21.10;55.70
60287;DHT22;46141;52.382;5.270;2023-04-06T14:46:24;21.10;55.70
60287;DHT22;46141;52.382;5.270;2023-04-06T14:48:51;21.10;55.70
60287;DHT22;46141;52.382;5.270;2023-04-06T14:51:16;21.20;55.70
60287;DHT22;46141;52.382;5.270;2023-04-06T14:53:42;21.20;55.70
60287;DHT22;46141;52.382;5.270;2023-04-06T14:56:08;21.20;55.70
60287;DHT22;46141;52.382;5.270;2023-04-06T14:58:34;21.20;56.30
60287;DHT22;46141;52.382;5.270;2023-04-06T15:01:00;21.10;55.70
60287;DHT22;46141;52.382;5.270;2023-04-06T15:03:27;21.10;55.70
60287;DHT22;46141;52.382;5.270;2023-04-06T15:05:54;21.20;55.70
60287;DHT22;46141;52.382;5.270;2023-04-06T15:08:21;21.20;55.80
60287;DHT22;46141;52.382;5.270;2023-04-06T15:10:47;21.20;55.70
60287;DHT22;46141;52.382;5.270;2023-04-06T15:13:13;21.20;55.70
60287;DHT22;46141;52.382;5.270;2023-04-06T15:15:40;21.20;55.70
60287;DHT22;46141;52.382;5.270;2023-04-06T15:18:07;21.20;55.70
60287;DHT22;46141;52.382;5.270;2023-04-06T15:20:33;21.10;55.70
60287;DHT22;46141;52.382;5.270;2023-04-06T15:22:58;21.10;55.70
60287;DHT22;46141;52.382;5.270;2023-04-06T15:25:24;21.10;55.80
60287;DHT22;46141;52.382;5.270;2023-04-06T15:27:50;21.10;55.80
60287;DHT22;46141;52.382;5.270;2023-04-06T15:30:16;21.10;55.70
60287;DHT22;46141;52.382;5.270;2023-04-06T15:33:03;21.10;55.80
60287;DHT22;46141;52.382;5.270;2023-04-06T15:35:29;21.10;55.80
60287;DHT22;46141;52.382;5.270;2023-04-06T15:37:58;21.10;55.80
60287;DHT22;46141;52.382;5.270;2023-04-06T15:40:24;21.10;55.90
60287;DHT22;46141;52.382;5.270;2023-04-06T15:42:50;21.10;55.90